Carolina, PR (00984)

12:31 PM AST on March 04, 2015 (GMT -0400)
Manejo de Emergencias Carolina | Change Station
CLOSE
Current Station
Personal Weather Station
Location: Carolina, PR
Elevation: 40 ft
Nearby Weather Stations

Elev 40 ft 18.38 °N, 65.97 °W | Updated 12 minutes ago

Scattered Clouds
Scattered Clouds
81.3 °F
Feels Like 85 °F
N
15.0
Wind Variable Wind from ESE
Gusts 23.0 mph

Today
High -- | Low -- °F
--% Chance of Precip.
Yesterday
High -- | Low -- °F
Precip. -- in
6:40 AM 6:30 PM
Waxing Gibbous, 99% visible
Pressure 30.12 in
Visibility 10.0 miles
Clouds Few 3600 ft
Scattered Clouds 5500 ft
Heat Index 85 °F
Dew Point 70 °F
Humidity 69%
Rainfall -999.00 in
Snow Depth Not available.
UV 8 out of 12
Pollen Not available.
Air Quality Not available.
Flu Activity Not available.
METAR TJSJ 041556Z 08018G26KT 10SM FEW036 SCT055 28/19 A3013 RMK AO2 PK WND 07026/1553 SLP200 T02780194

More Conditions Fewer Conditions

Pressure 30.12 in
Visibility 10.0 miles
Clouds Few 3600 ft
Scattered Clouds 5500 ft
Heat Index 85 °F
Dew Point 70 °F
Humidity 69%
Rainfall -999.00 in
Snow Depth Not available.
UV 8 out of 12
Pollen Not available.
Air Quality Not available.
Flu Activity Not available.
METAR TJSJ 041556Z 08018G26KT 10SM FEW036 SCT055 28/19 A3013 RMK AO2 PK WND 07026/1553 SLP200 T02780194

More Conditions Fewer Conditions

10-Day Weather Forecast

Almanac

Astronomy

Mar. 04, 2015 Rise Set
Actual Time
Civil Twilight
Nautical Twilight
Astronomical Twilight
Moon
Length of Visible Light
Length of Day
Tomorrow will be .
, % of the Moon is Illuminated

Today's Extremes

State Highs State Lows

Community

WunderPhotos

Upload Photos

1,802,503 photos uploaded!

WunderBlogs® & News

Nearby

Air Quality

  Air Quality AQ Index Pollutant
Not available.

Snow Depth

Station Depth Elevation

Earthquake Activity

City Distance Mag. Time & Date
Minimum magnitude displayed is 2.5.

Coastal Water Temperatures

Place Temperature

Nearby Weather Stations